createdAt,value
2019-05-15T00:02:27.877Z,3.50
2019-05-15T00:04:58.585Z,3.73
2019-05-15T00:07:29.593Z,3.80
2019-05-15T00:10:00.526Z,3.83
2019-05-15T00:12:31.835Z,3.90
2019-05-15T00:15:02.915Z,3.50
2019-05-15T00:17:34.331Z,3.43
2019-05-15T00:20:05.546Z,3.93
2019-05-15T00:22:38.729Z,4.20
2019-05-15T00:25:09.541Z,3.97
2019-05-15T00:27:40.626Z,3.13
2019-05-15T00:30:12.283Z,3.70
2019-05-15T00:32:43.178Z,4.73
2019-05-15T00:35:14.291Z,4.20
2019-05-15T00:37:45.263Z,4.30
2019-05-15T00:40:18.331Z,4.33
2019-05-15T00:42:49.072Z,3.47
2019-05-15T00:45:20.091Z,4.17
2019-05-15T00:47:51.063Z,4.27
2019-05-15T00:50:22.223Z,4.70
2019-05-15T00:52:53.527Z,4.20
2019-05-15T00:55:25.068Z,4.13
2019-05-15T00:57:55.815Z,4.03
2019-05-15T01:00:41.825Z,3.83
2019-05-15T01:03:12.768Z,4.20
2019-05-15T01:05:43.740Z,4.00
2019-05-15T01:08:14.644Z,3.80
2019-05-15T01:10:45.487Z,4.80
2019-05-15T01:13:18.780Z,3.87
2019-05-15T01:15:49.195Z,4.00
2019-05-15T01:18:20.708Z,3.50
2019-05-15T01:20:51.711Z,3.77
2019-05-15T01:23:22.725Z,4.87
2019-05-15T01:25:54.623Z,3.87
2019-05-15T01:28:25.523Z,3.67
2019-05-15T01:30:56.473Z,3.73
2019-05-15T01:33:28.336Z,4.83
2019-05-15T01:35:59.324Z,4.30
2019-05-15T01:38:30.546Z,4.53
2019-05-15T01:41:01.612Z,3.87
2019-05-15T01:43:32.649Z,4.23
2019-05-15T01:46:04.818Z,3.50
2019-05-15T01:48:35.778Z,4.40
2019-05-15T01:51:09.080Z,4.27
2019-05-15T01:53:39.450Z,3.93
2019-05-15T01:56:10.346Z,3.53
2019-05-15T01:58:41.429Z,4.87
2019-05-15T02:01:12.444Z,3.93
2019-05-15T02:03:46.155Z,4.03
2019-05-15T02:06:18.983Z,3.30
2019-05-15T02:08:50.216Z,3.70
2019-05-15T02:11:21.150Z,3.83
2019-05-15T02:13:52.161Z,4.27
2019-05-15T02:16:22.933Z,3.63
2019-05-15T02:18:53.869Z,3.60
2019-05-15T02:21:25.192Z,3.30
2019-05-15T02:23:58.637Z,3.33
2019-05-15T02:26:28.849Z,3.50
2019-05-15T02:28:59.741Z,3.07
2019-05-15T02:31:30.686Z,3.13
2019-05-15T02:34:02.405Z,3.60
2019-05-15T02:36:33.383Z,3.60
2019-05-15T02:39:08.694Z,3.53
2019-05-15T02:41:39.737Z,3.23
2019-05-15T02:44:11.870Z,3.40
2019-05-15T02:46:42.843Z,3.30
2019-05-15T02:49:14.030Z,3.47
2019-05-15T02:51:44.959Z,2.87
2019-05-15T02:54:19.271Z,3.07
2019-05-15T02:56:49.430Z,4.20
2019-05-15T02:59:20.666Z,3.10
2019-05-15T03:01:51.577Z,3.40
2019-05-15T03:04:22.583Z,3.77
2019-05-15T03:06:53.597Z,2.63
2019-05-15T03:09:24.578Z,3.33
2019-05-15T03:11:58.455Z,3.27
2019-05-15T03:14:29.185Z,4.20
2019-05-15T03:17:00.163Z,3.40
2019-05-15T03:19:31.422Z,4.80
2019-05-15T03:22:02.415Z,3.53
2019-05-15T03:24:33.547Z,3.83
2019-05-15T03:27:04.848Z,3.57
2019-05-15T03:29:35.870Z,3.93
2019-05-15T03:32:22.820Z,4.17
2019-05-15T03:34:46.919Z,3.27
2019-05-15T03:37:13.141Z,3.80
2019-05-15T03:39:46.920Z,2.90
2019-05-15T03:42:19.104Z,3.27
2019-05-15T03:44:50.233Z,3.20
2019-05-15T03:47:21.602Z,2.93
2019-05-15T03:49:52.556Z,3.57
2019-05-15T03:52:23.490Z,2.53
2019-05-15T03:54:54.478Z,2.70
2019-05-15T03:57:25.563Z,3.80
2019-05-15T03:59:59.601Z,2.87
2019-05-15T04:02:29.073Z,3.30
2019-05-15T04:05:01.691Z,3.07
2019-05-15T04:07:32.585Z,3.20
2019-05-15T04:10:03.676Z,3.00
2019-05-15T04:12:35.076Z,3.10
2019-05-15T04:15:09.989Z,3.63
2019-05-15T04:17:41.684Z,3.10
2019-05-15T04:20:13.486Z,3.13
2019-05-15T04:22:44.421Z,2.67
2019-05-15T04:25:18.898Z,3.53
2019-05-15T04:27:49.750Z,3.07
2019-05-15T04:30:20.716Z,3.57
2019-05-15T04:32:51.965Z,3.43
2019-05-15T04:35:23.036Z,3.13
2019-05-15T04:37:55.409Z,3.07
2019-05-15T04:40:29.694Z,3.00
2019-05-15T04:42:59.595Z,3.80
2019-05-15T04:45:35.199Z,3.53
2019-05-15T04:48:09.985Z,3.37
2019-05-15T04:50:40.184Z,3.43
2019-05-15T04:53:11.571Z,2.83
2019-05-15T04:55:48.845Z,3.17
2019-05-15T04:58:20.937Z,2.70
2019-05-15T05:00:52.952Z,2.90
2019-05-15T05:03:23.943Z,3.03
2019-05-15T05:05:55.173Z,3.00
2019-05-15T05:08:28.833Z,2.97
2019-05-15T05:10:59.455Z,3.13
2019-05-15T05:13:30.282Z,4.50
2019-05-15T05:16:01.521Z,2.90
2019-05-15T05:18:32.547Z,2.30
2019-05-15T05:21:03.915Z,2.73
2019-05-15T05:23:34.968Z,4.00
2019-05-15T05:26:10.858Z,2.90
2019-05-15T05:28:39.998Z,2.97
2019-05-15T05:31:14.101Z,2.87
2019-05-15T05:33:48.491Z,3.10
2019-05-15T05:36:21.050Z,2.73
2019-05-15T05:38:54.327Z,2.67
2019-05-15T05:41:28.015Z,2.23
2019-05-15T05:43:59.283Z,1.97
2019-05-15T05:46:31.161Z,2.03
2019-05-15T05:49:02.218Z,1.97
2019-05-15T05:51:33.096Z,2.00
2019-05-15T05:54:03.995Z,2.10
2019-05-15T05:56:34.888Z,2.03
2019-05-15T05:59:05.795Z,3.07
2019-05-15T06:01:43.542Z,1.70
2019-05-15T06:04:09.211Z,1.87
2019-05-15T06:06:40.095Z,1.90
2019-05-15T06:09:11.418Z,2.42
2019-05-15T06:11:42.760Z,1.50
2019-05-15T06:14:13.759Z,2.00
2019-05-15T06:16:44.696Z,2.40
2019-05-15T06:19:18.053Z,2.00
2019-05-15T06:21:56.624Z,1.92
2019-05-15T06:24:20.745Z,1.80
2019-05-15T06:26:51.548Z,1.40
2019-05-15T06:29:22.711Z,1.42
2019-05-15T06:31:53.618Z,1.60
2019-05-15T06:34:24.577Z,1.90
2019-05-15T06:36:58.736Z,2.20
2019-05-15T06:39:28.952Z,1.47
2019-05-15T06:41:59.750Z,2.00
2019-05-15T06:44:30.813Z,1.42
2019-05-15T06:47:01.744Z,1.60
2019-05-15T06:49:33.048Z,1.57
2019-05-15T06:52:04.035Z,1.52
2019-05-15T06:54:37.428Z,1.40
2019-05-15T06:57:09.085Z,1.40
2019-05-15T06:59:41.265Z,1.30
2019-05-15T07:02:12.165Z,1.75
2019-05-15T07:04:43.063Z,1.67
2019-05-15T07:07:13.967Z,1.35
2019-05-15T07:09:45.014Z,1.25
2019-05-15T07:12:18.655Z,1.95
2019-05-15T07:14:49.744Z,1.75
2019-05-15T07:17:20.637Z,1.62
2019-05-15T07:19:51.611Z,1.62
2019-05-15T07:22:22.523Z,1.42
2019-05-15T07:24:53.437Z,0.93
2019-05-15T07:27:24.320Z,1.67
2019-05-15T07:29:55.253Z,1.40
2019-05-15T07:32:28.380Z,1.55
2019-05-15T07:34:58.579Z,1.65
2019-05-15T07:37:29.410Z,1.30
2019-05-15T07:40:00.355Z,1.80
2019-05-15T07:42:31.267Z,1.80
2019-05-15T07:45:02.193Z,1.62
2019-05-15T07:47:34.176Z,1.50
2019-05-15T07:50:08.713Z,1.77
2019-05-15T07:52:39.948Z,2.15
2019-05-15T07:55:12.042Z,1.52
2019-05-15T07:57:43.005Z,1.20
2019-05-15T08:00:14.625Z,1.72
2019-05-15T08:02:47.833Z,1.10
2019-05-15T08:05:18.867Z,1.72
2019-05-15T08:07:49.877Z,1.70
2019-05-15T08:10:22.359Z,1.95
2019-05-15T08:12:53.151Z,1.75
2019-05-15T08:15:24.363Z,1.65
2019-05-15T08:18:05.430Z,1.62
2019-05-15T08:20:28.927Z,1.57
2019-05-15T08:22:59.839Z,1.52
2019-05-15T08:25:35.280Z,1.65
2019-05-15T08:28:03.927Z,2.52
2019-05-15T08:30:34.786Z,1.60
2019-05-15T08:33:08.193Z,3.12
2019-05-15T08:35:38.790Z,2.00
2019-05-15T08:38:09.708Z,1.80
2019-05-15T08:40:41.175Z,2.55
2019-05-15T08:43:12.344Z,1.90
2019-05-15T08:45:43.663Z,1.80
2019-05-15T08:48:14.575Z,2.35
2019-05-15T08:50:45.454Z,2.05
2019-05-15T08:53:18.961Z,2.42
2019-05-15T08:55:48.933Z,1.92
2019-05-15T08:58:20.694Z,2.00
2019-05-15T09:00:52.710Z,1.87
2019-05-15T09:03:24.043Z,2.15
2019-05-15T09:05:54.889Z,1.87
2019-05-15T09:08:25.827Z,2.17
2019-05-15T09:10:58.655Z,1.37
2019-05-15T09:13:29.489Z,2.00
2019-05-15T09:16:00.343Z,1.52
2019-05-15T09:18:31.283Z,1.45
2019-05-15T09:21:02.274Z,1.67
2019-05-15T09:23:33.441Z,1.57
2019-05-15T09:26:04.443Z,1.37
2019-05-15T09:28:35.437Z,1.37
2019-05-15T09:31:08.390Z,1.77
2019-05-15T09:33:38.964Z,1.80
2019-05-15T09:36:09.983Z,1.67
2019-05-15T09:38:40.893Z,1.35
2019-05-15T09:41:11.902Z,1.22
2019-05-15T09:43:42.774Z,1.80
2019-05-15T09:46:13.719Z,1.62
2019-05-15T09:48:47.635Z,1.80
2019-05-15T09:51:18.326Z,1.32
2019-05-15T09:53:49.428Z,1.65
2019-05-15T09:56:20.465Z,1.50
2019-05-15T09:58:51.351Z,1.25
2019-05-15T10:01:22.219Z,1.65
2019-05-15T10:03:53.140Z,1.72
2019-05-15T10:06:23.948Z,1.42
2019-05-15T10:08:54.769Z,4.33
2019-05-15T10:11:25.688Z,1.65
2019-05-15T10:13:58.528Z,1.85
2019-05-15T10:16:29.258Z,2.22
2019-05-15T10:19:00.208Z,1.37
2019-05-15T10:21:32.595Z,1.70
2019-05-15T10:24:04.482Z,2.08
2019-05-15T10:26:35.729Z,1.52
2019-05-15T10:29:09.163Z,1.02
2019-05-15T10:31:40.315Z,1.22
2019-05-15T10:34:11.214Z,1.57
2019-05-15T10:36:42.087Z,1.55
2019-05-15T10:39:13.423Z,1.70
2019-05-15T10:41:44.438Z,0.90
2019-05-15T10:44:17.992Z,1.52
2019-05-15T10:46:48.448Z,3.85
2019-05-15T10:49:19.437Z,1.57
2019-05-15T10:51:50.348Z,1.47
2019-05-15T10:54:21.254Z,1.27
2019-05-15T10:56:52.222Z,1.70
2019-05-15T10:59:23.091Z,1.45
2019-05-15T11:01:53.937Z,1.17
2019-05-15T11:04:24.751Z,1.37
2019-05-15T11:06:57.988Z,1.37
2019-05-15T11:09:29.138Z,1.22
2019-05-15T11:12:00.011Z,1.47
2019-05-15T11:14:30.958Z,0.90
2019-05-15T11:17:01.861Z,1.47
2019-05-15T11:19:36.012Z,1.62
2019-05-15T11:22:05.371Z,1.22
2019-05-15T11:24:38.567Z,1.60
2019-05-15T11:27:09.977Z,1.65
2019-05-15T11:29:41.108Z,1.12
2019-05-15T11:32:11.999Z,1.20
2019-05-15T11:34:43.303Z,1.10
2019-05-15T11:37:14.257Z,1.32
2019-05-15T11:39:46.874Z,1.12
2019-05-15T11:42:20.333Z,1.00
2019-05-15T11:44:53.306Z,1.42
2019-05-15T11:47:23.188Z,1.20
2019-05-15T11:49:54.056Z,1.60
2019-05-15T11:52:24.905Z,1.07
2019-05-15T11:54:58.789Z,1.50
2019-05-15T11:57:39.287Z,1.45
2019-05-15T12:00:00.966Z,1.42
2019-05-15T12:02:31.955Z,1.40
2019-05-15T12:05:02.855Z,1.35
2019-05-15T12:07:33.955Z,1.52
2019-05-15T12:10:05.030Z,1.60
2019-05-15T12:12:38.301Z,1.30
2019-05-15T12:15:09.632Z,1.50
2019-05-15T12:17:40.616Z,3.30
2019-05-15T12:20:12.031Z,1.12
2019-05-15T12:22:43.028Z,1.27
2019-05-15T12:25:14.183Z,1.07
2019-05-15T12:27:45.253Z,1.27
2019-05-15T12:30:19.874Z,1.15
2019-05-15T12:32:49.837Z,1.20
2019-05-15T12:35:20.733Z,0.90
2019-05-15T12:37:51.591Z,0.70
2019-05-15T13:00:44.974Z,0.80
2019-05-15T13:03:18.105Z,0.80
2019-05-15T13:05:48.745Z,0.80
2019-05-15T13:08:19.772Z,0.70
2019-05-15T13:10:50.673Z,1.27
2019-05-15T13:13:21.709Z,0.85
2019-05-15T13:15:52.640Z,0.93
2019-05-15T13:18:23.523Z,1.10
2019-05-15T13:20:56.112Z,1.07
2019-05-15T13:23:28.481Z,0.65
2019-05-15T13:25:59.704Z,0.95
2019-05-15T13:28:31.023Z,1.35
2019-05-15T13:31:02.025Z,0.80
2019-05-15T13:33:32.982Z,1.00
2019-05-15T13:36:03.949Z,1.62
2019-05-15T13:38:34.849Z,2.75
2019-05-15T13:41:05.821Z,1.35
2019-05-15T13:43:38.544Z,1.02
2019-05-15T13:46:09.561Z,1.10
2019-05-15T13:48:40.498Z,1.05
2019-05-15T13:51:11.375Z,1.00
2019-05-15T13:53:42.288Z,0.90
2019-05-15T13:56:14.550Z,1.40
2019-05-15T13:58:47.936Z,1.42
2019-05-15T14:01:19.645Z,1.33
2019-05-15T14:03:50.726Z,1.20
2019-05-15T14:06:21.661Z,0.90
2019-05-15T14:08:52.526Z,0.90
2019-05-15T14:11:23.480Z,1.02
2019-05-15T14:13:54.476Z,1.07
2019-05-15T14:16:25.465Z,0.72
2019-05-15T14:18:58.590Z,1.00
2019-05-15T14:21:30.417Z,1.80
2019-05-15T14:24:01.591Z,1.20
2019-05-15T14:26:32.779Z,1.50
2019-05-15T14:29:05.660Z,1.42
2019-05-15T14:31:37.096Z,2.33
2019-05-15T14:34:09.958Z,1.00
2019-05-15T14:36:40.806Z,1.10
2019-05-15T14:39:11.819Z,0.82
2019-05-15T14:41:42.812Z,0.85
2019-05-15T14:44:20.760Z,1.33
2019-05-15T14:46:50.721Z,1.27
2019-05-15T14:49:20.267Z,1.10
2019-05-15T14:52:04.786Z,1.20
2019-05-15T14:54:23.756Z,1.10
2019-05-15T14:56:54.615Z,1.90
2019-05-15T14:59:25.622Z,2.37
2019-05-15T15:01:58.075Z,1.83
2019-05-15T15:04:29.199Z,1.47
2019-05-15T15:07:00.064Z,2.40
2019-05-15T15:09:30.904Z,1.40
2019-05-15T15:12:01.743Z,1.53
2019-05-15T15:14:32.652Z,1.50
2019-05-15T15:17:04.235Z,1.40
2019-05-15T15:19:35.280Z,1.67
2019-05-15T15:22:08.506Z,1.60
2019-05-15T15:24:39.102Z,2.17
2019-05-15T15:27:10.095Z,2.03
2019-05-15T15:29:40.984Z,1.80
2019-05-15T15:32:11.953Z,2.10
2019-05-15T15:34:42.821Z,1.80
2019-05-15T15:37:28.272Z,1.63
2019-05-15T15:39:58.841Z,2.30
2019-05-15T15:42:29.860Z,1.77
2019-05-15T15:45:00.713Z,4.07
2019-05-15T15:47:31.647Z,2.47
2019-05-15T15:50:02.569Z,2.60
2019-05-15T15:52:33.399Z,2.20
2019-05-15T15:55:04.311Z,2.70
2019-05-15T15:57:35.303Z,2.17
2019-05-15T16:00:08.777Z,2.10
2019-05-15T16:02:41.156Z,2.30
2019-05-15T16:05:12.989Z,2.40
2019-05-15T16:07:43.933Z,2.50
2019-05-15T16:10:14.918Z,2.20
2019-05-15T16:12:45.850Z,4.67
2019-05-15T16:15:18.068Z,3.37
2019-05-15T16:17:49.115Z,3.37
2019-05-15T16:20:20.047Z,1.80
2019-05-15T16:22:50.991Z,2.60
2019-05-15T16:25:21.948Z,2.23
2019-05-15T16:27:52.740Z,2.17
2019-05-15T16:30:23.626Z,1.60
2019-05-15T16:32:54.828Z,2.23
2019-05-15T16:35:25.712Z,2.10
2019-05-15T16:37:58.426Z,2.47
2019-05-15T16:40:29.165Z,1.83
2019-05-15T16:43:00.009Z,1.93
2019-05-15T16:45:31.040Z,2.50
2019-05-15T16:48:01.893Z,2.63
2019-05-15T16:50:32.985Z,2.93
2019-05-15T16:53:04.243Z,2.73
2019-05-15T16:55:35.117Z,2.50
2019-05-15T16:58:05.933Z,3.13
2019-05-15T17:00:38.460Z,2.80
2019-05-15T17:03:14.719Z,2.33
2019-05-15T17:05:41.746Z,2.60
2019-05-15T17:08:12.691Z,2.70
2019-05-15T17:10:44.657Z,3.27
2019-05-15T17:13:15.761Z,3.20
2019-05-15T17:15:47.875Z,3.30
2019-05-15T17:18:18.789Z,3.33
2019-05-15T17:20:49.612Z,2.90
2019-05-15T17:23:20.420Z,3.63
2019-05-15T17:25:51.440Z,3.50
2019-05-15T17:28:22.390Z,3.23
2019-05-15T17:30:53.318Z,3.43
2019-05-15T17:33:24.325Z,2.63
2019-05-15T17:35:55.235Z,3.30
2019-05-15T17:38:28.236Z,3.60
2019-05-15T17:40:58.711Z,4.17
2019-05-15T17:43:29.579Z,3.97
2019-05-15T17:46:00.473Z,3.70
2019-05-15T17:48:31.397Z,3.50
2019-05-15T17:51:02.259Z,3.50
2019-05-15T17:53:33.203Z,3.20
2019-05-15T17:56:04.075Z,3.13
2019-05-15T17:58:34.970Z,3.57
2019-05-15T18:01:08.543Z,3.13
2019-05-15T18:03:39.269Z,3.43
2019-05-15T18:06:10.719Z,3.37
2019-05-15T18:08:41.683Z,3.80
2019-05-15T18:11:12.604Z,3.57
2019-05-15T18:13:43.503Z,2.73
2019-05-15T18:16:14.402Z,3.27
2019-05-15T18:18:45.312Z,2.77
2019-05-15T18:21:18.311Z,3.30
2019-05-15T18:23:48.818Z,3.07
2019-05-15T18:26:19.643Z,3.57
2019-05-15T18:28:50.967Z,3.13
2019-05-15T18:31:21.981Z,3.13
2019-05-15T18:33:56.602Z,3.90
2019-05-15T18:36:25.496Z,3.23
2019-05-15T18:38:58.689Z,3.20
2019-05-15T18:41:29.021Z,3.60
2019-05-15T18:44:00.976Z,3.20
2019-05-15T18:46:31.874Z,3.10
2019-05-15T18:49:02.828Z,2.83
2019-05-15T18:51:33.766Z,3.17
2019-05-15T18:54:04.730Z,2.83
2019-05-15T18:56:38.386Z,2.90
2019-05-15T18:59:08.674Z,3.57
2019-05-15T19:01:39.628Z,3.43
2019-05-15T19:04:10.796Z,3.50
2019-05-15T19:06:41.761Z,3.27
2019-05-15T19:09:13.358Z,3.63
2019-05-15T19:11:44.831Z,3.30
2019-05-15T19:14:15.735Z,3.70
2019-05-15T19:16:48.421Z,3.40
2019-05-15T19:19:19.790Z,3.90
2019-05-15T19:21:50.736Z,3.87
2019-05-15T19:24:22.277Z,3.83
2019-05-15T19:26:53.132Z,3.27
2019-05-15T19:29:28.345Z,3.50
2019-05-15T19:31:59.386Z,3.33
2019-05-15T19:34:30.315Z,4.07
2019-05-15T19:37:01.547Z,3.87
2019-05-15T19:39:32.491Z,3.40
2019-05-15T19:42:03.450Z,3.17
2019-05-15T19:44:34.790Z,3.30
2019-05-15T19:47:07.827Z,3.27
2019-05-15T19:49:38.271Z,5.17
2019-05-15T19:52:09.482Z,3.97
2019-05-15T19:54:40.717Z,3.73
2019-05-15T19:57:11.890Z,3.60
2019-05-15T19:59:42.929Z,3.17
2019-05-15T20:02:13.945Z,3.67
2019-05-15T20:04:44.900Z,3.07
2019-05-15T20:07:18.501Z,3.10
2019-05-15T20:09:48.900Z,3.57
2019-05-15T20:12:19.968Z,3.33
2019-05-15T20:14:50.893Z,4.13
2019-05-15T20:17:21.837Z,3.10
2019-05-15T20:19:53.044Z,3.10
2019-05-15T20:22:24.024Z,3.30
2019-05-15T20:24:54.971Z,3.67
2019-05-15T20:27:28.206Z,2.93
2019-05-15T20:29:59.272Z,3.33
2019-05-15T20:32:30.508Z,3.27
2019-05-15T20:35:02.183Z,3.40
2019-05-15T20:37:33.303Z,3.30
2019-05-15T20:40:04.660Z,3.37
2019-05-15T20:42:38.099Z,3.50
2019-05-15T20:45:12.327Z,3.60
2019-05-15T20:47:43.338Z,3.10
2019-05-15T20:50:14.411Z,3.37
2019-05-15T20:52:45.185Z,3.50
2019-05-15T20:55:17.010Z,3.40
2019-05-15T20:57:50.525Z,3.43
2019-05-15T21:00:21.977Z,3.60
2019-05-15T21:02:52.916Z,2.93
2019-05-15T21:05:23.786Z,3.43
2019-05-15T21:07:54.842Z,3.00
2019-05-15T21:10:26.273Z,3.20
2019-05-15T21:12:59.408Z,2.90
2019-05-15T21:15:45.358Z,3.40
2019-05-15T21:18:17.399Z,3.40
2019-05-15T21:20:49.990Z,3.20
2019-05-15T21:23:20.798Z,3.43
2019-05-15T21:25:51.860Z,3.13
2019-05-15T21:28:23.024Z,3.47
2019-05-15T21:30:53.898Z,3.50
2019-05-15T21:33:24.766Z,4.40
2019-05-15T21:35:58.224Z,4.17
2019-05-15T21:38:28.542Z,5.00
2019-05-15T21:40:59.422Z,4.60
2019-05-15T21:43:30.349Z,5.17
2019-05-15T21:46:01.225Z,4.40
2019-05-15T21:48:32.200Z,4.03
2019-05-15T21:51:03.161Z,5.33
2019-05-15T21:53:34.027Z,4.73
2019-05-15T21:56:04.991Z,4.97
2019-05-15T21:58:37.733Z,5.37
2019-05-15T22:01:10.517Z,5.13
2019-05-15T22:03:41.939Z,4.70
2019-05-15T22:06:12.865Z,4.77
2019-05-15T22:08:43.834Z,4.87
2019-05-15T22:11:14.761Z,5.63
2019-05-15T22:13:48.021Z,5.00
2019-05-15T22:16:20.242Z,4.70
2019-05-15T22:18:51.212Z,4.47
2019-05-15T22:21:22.157Z,4.30
2019-05-15T22:23:53.121Z,5.10
2019-05-15T22:26:23.984Z,5.57
2019-05-15T22:28:55.017Z,5.03
2019-05-15T22:31:25.952Z,4.80
2019-05-15T22:33:58.500Z,5.33
2019-05-15T22:36:29.625Z,4.93
2019-05-15T22:39:00.736Z,5.30
2019-05-15T22:41:33.280Z,5.43
2019-05-15T22:44:04.344Z,5.10
2019-05-15T22:46:35.489Z,5.23
2019-05-15T22:49:06.488Z,9.07
2019-05-15T22:51:38.237Z,5.53
2019-05-15T22:54:09.548Z,5.13
2019-05-15T22:56:40.613Z,4.40
2019-05-15T22:59:11.576Z,4.70
2019-05-15T23:01:42.832Z,4.50
2019-05-15T23:04:14.114Z,5.57
2019-05-15T23:06:50.747Z,4.47
2019-05-15T23:09:21.981Z,4.83
2019-05-15T23:11:52.906Z,5.53
2019-05-15T23:14:25.129Z,5.47
2019-05-15T23:16:58.845Z,4.93
2019-05-15T23:19:28.788Z,5.27
2019-05-15T23:22:01.593Z,5.30
2019-05-15T23:24:32.492Z,4.87
2019-05-15T23:27:03.423Z,5.07
2019-05-15T23:29:34.284Z,5.47
2019-05-15T23:32:05.161Z,4.43
2019-05-15T23:34:38.440Z,5.73
2019-05-15T23:37:08.592Z,5.83
2019-05-15T23:39:39.738Z,5.07
2019-05-15T23:42:10.538Z,5.13
2019-05-15T23:44:41.482Z,4.73
2019-05-15T23:47:12.346Z,4.57
2019-05-15T23:49:43.242Z,4.87
2019-05-15T23:52:14.109Z,5.40
2019-05-15T23:54:44.967Z,4.67
2019-05-15T23:57:18.007Z,5.30
2019-05-15T23:59:48.487Z,5.13
